Impacts METAR Board INFO
IDs:

KRNH - New Richmond Muni, WI, US

Updated at: 1329 UTC 25 Feb 2018
Potential Impact None Slight Moderate High
Time25/01Z 25/02Z 25/03Z 25/04Z 25/05Z 25/06Z 25/07Z 25/08Z 25/09Z 25/10Z 25/11Z 25/12Z 25/13Z
VIS1.25 0.75 0.75 2 1.75 7 1.5 4 5 7 5 7 10
CIG7 3 1 9 8 6 9 13 13 11 9 9 11
CoverOVXBKNBKNOVCOVCOVCOVCOVCOVCOVCOVCOVCOVC
FltCatIFRLIFRLIFRIFRIFRIFRIFRMVFRMVFRMVFRIFRIFRMVFR
WX-SNSNSN-SN-SN---SN-SNBR--BR----
WDir900901100230250260240250250240240
WSpd4 0 4 3 0 10 15 15 16 13 15 11 11
WGst-- -- -- -- -- -- 21 21 22 18 21 -- 19
Raw hourly METARs
KRNH 250050Z AUTO 09004KT 1 1/4SM -SN VV007 M01/M03 A2962 RMK AO2 T10121027
KRNH 250155Z AUTO 00000KT 3/4SM SN BKN003 M01/M02 A2957 RMK AO2 T10131025
KRNH 250300Z AUTO 09004KT 3/4SM SN BKN001 M01/M02 A2951 RMK AO2 T10131022
KRNH 250355Z AUTO 11003KT 2SM -SN OVC009 M01/M02 A2947 RMK AO2 T10131021
KRNH 250455Z AUTO 00000KT 1 3/4SM -SN BKN008 OVC019 M01/M02 A2943 RMK AO2 T10131020
KRNH 250555Z AUTO 23010KT 7SM OVC006 M01/M02 A2941 RMK AO2 T10131017 11010 21015 410101199
KRNH 250655Z AUTO 25015G21KT 1 1/2SM -SN SCT005 BKN009 OVC014 M03/M04 A2943 RMK AO2 T10301037
KRNH 250755Z AUTO 26015G21KT 4SM -SN SCT009 BKN013 OVC022 M05/M06 A2945 RMK AO2 T10461061
KRNH 250855Z AUTO 24016G22KT 5SM BR OVC013 M06/M08 A2947 RMK AO2 T10601081
KRNH 250955Z AUTO 25013G18KT 7SM OVC011 M07/M09 A2950 RMK AO2 T10731094
KRNH 251055Z AUTO 25015G21KT 5SM BR OVC009 M08/M10 A2954 RMK AO2 T10771098
KRNH 251155Z AUTO 24011KT 7SM OVC009 M08/M10 A2957 RMK AO2 T10821101 11013 21082
KRNH 251255Z AUTO 24011G19KT 10SM OVC011 M07/M09 A2959 RMK AO2 T10751095